LSGG

Geneva Cointrin International Airport

Airport
ICAO code
LSGG
IATA Code
GVA
Summary
ICAO Region
EUR
ICAO Territory
Location

Meyrin, Geneve

Serving
Geneva
Elevation
1411 ft
Coordinates
46° 14' 17" N , 6° 6' 32" E
KCC
Metar
Observation
LSGG 302020Z VRB02KT 9999 FEW058 M00/M04 Q1028 NOSIG
Station
Geneve-Cointrin
Date/Time
2023-01-30 20:20:00
Wind speed
02 kts
Lowest cloud amount
few clouds
Temperature
-0°C
Dew point
-4°C
Humidity
74%
QNH
1028 hPa
Weather condition
n/a

Runways

Designator Length Width Surface Rops
05L/23R 823 30 CAUTION: A No/No
5/23 3900 50 CON Yes/Yes

SKYbrary Partners:

Safety knowledge contributed by: